createdAt,value
2017-09-25T00:00:27.181Z,93.30
2017-09-25T00:02:54.813Z,93.30
2017-09-25T00:05:22.444Z,93.50
2017-09-25T00:07:50.816Z,93.50
2017-09-25T00:10:19.208Z,93.70
2017-09-25T00:12:46.799Z,93.60
2017-09-25T00:15:14.385Z,93.80
2017-09-25T00:17:41.965Z,93.80
2017-09-25T00:20:10.903Z,94.00
2017-09-25T00:22:38.568Z,93.90
2017-09-25T00:25:06.141Z,94.10
2017-09-25T00:27:33.756Z,94.20
2017-09-25T00:30:01.380Z,94.20
2017-09-25T00:32:29.012Z,94.10
2017-09-25T00:34:56.598Z,94.10
2017-09-25T00:37:24.233Z,94.20
2017-09-25T00:39:51.895Z,94.20
2017-09-25T00:42:19.462Z,94.20
2017-09-25T00:44:47.122Z,94.30
2017-09-25T00:47:14.741Z,94.20
2017-09-25T00:49:43.133Z,94.20
2017-09-25T00:52:10.710Z,94.20
2017-09-25T00:54:38.313Z,94.10
2017-09-25T00:57:05.934Z,94.40
2017-09-25T00:59:33.553Z,94.10
2017-09-25T01:02:14.372Z,94.20
2017-09-25T01:04:54.041Z,94.20
2017-09-25T01:07:21.705Z,94.20
2017-09-25T01:09:49.350Z,94.30
2017-09-25T01:12:16.991Z,94.30
2017-09-25T01:14:44.635Z,94.30
2017-09-25T01:17:12.230Z,94.40
2017-09-25T01:19:39.875Z,94.30
2017-09-25T01:22:07.480Z,94.20
2017-09-25T01:24:35.164Z,94.30
2017-09-25T01:27:03.535Z,94.20
2017-09-25T01:29:32.894Z,94.40
2017-09-25T01:32:00.564Z,94.30
2017-09-25T01:34:28.227Z,94.50
2017-09-25T01:36:55.814Z,94.50
2017-09-25T01:39:23.416Z,94.60
2017-09-25T01:41:51.002Z,94.60
2017-09-25T01:44:19.579Z,94.60
2017-09-25T01:46:47.173Z,94.80
2017-09-25T01:49:14.746Z,94.80
2017-09-25T01:51:43.118Z,94.80
2017-09-25T01:54:11.557Z,95.00
2017-09-25T01:56:39.151Z,94.90
2017-09-25T01:59:06.733Z,95.00
2017-09-25T02:01:34.354Z,94.90
2017-09-25T02:04:02.798Z,94.90
2017-09-25T02:06:30.395Z,95.00
2017-09-25T02:08:58.042Z,95.00
2017-09-25T02:11:25.669Z,95.00
2017-09-25T02:13:53.292Z,95.00
2017-09-25T02:16:20.909Z,95.00
2017-09-25T02:18:48.497Z,95.10
2017-09-25T02:21:16.153Z,95.20
2017-09-25T02:23:43.826Z,95.10
2017-09-25T02:26:11.426Z,95.20
2017-09-25T02:28:39.038Z,95.10
2017-09-25T02:31:06.655Z,95.30
2017-09-25T02:33:34.278Z,95.20
2017-09-25T02:36:01.928Z,95.20
2017-09-25T02:38:29.542Z,95.30
2017-09-25T02:40:57.166Z,95.30
2017-09-25T02:43:24.746Z,95.30
2017-09-25T02:45:53.109Z,95.40
2017-09-25T02:48:20.714Z,95.40
2017-09-25T02:50:49.297Z,95.40
2017-09-25T02:53:16.899Z,95.30
2017-09-25T02:55:44.536Z,95.30
2017-09-25T02:58:12.130Z,95.30
2017-09-25T03:00:39.715Z,95.30
2017-09-25T03:03:08.087Z,95.20
2017-09-25T03:05:36.445Z,95.10
2017-09-25T03:08:04.073Z,95.10
2017-09-25T03:10:31.695Z,95.00
2017-09-25T03:12:59.344Z,94.90
2017-09-25T03:15:27.741Z,94.60
2017-09-25T03:17:55.379Z,94.60
2017-09-25T03:20:23.806Z,94.70
2017-09-25T03:22:51.399Z,94.70
2017-09-25T03:25:19.001Z,94.60
2017-09-25T03:27:47.373Z,94.70
2017-09-25T03:30:15.740Z,94.60
2017-09-25T03:32:44.138Z,94.80
2017-09-25T03:35:11.755Z,94.70
2017-09-25T03:37:39.382Z,94.70
2017-09-25T03:40:07.017Z,94.70
2017-09-25T03:42:35.452Z,95.00
2017-09-25T03:45:03.067Z,95.00
2017-09-25T03:47:30.685Z,95.00
2017-09-25T03:49:58.317Z,95.10
2017-09-25T03:52:25.935Z,95.20
2017-09-25T03:54:55.231Z,95.10
2017-09-25T03:57:23.853Z,95.50
2017-09-25T03:59:51.454Z,95.10
2017-09-25T04:02:19.088Z,95.10
2017-09-25T04:04:46.684Z,95.00
2017-09-25T04:07:14.320Z,95.00
2017-09-25T04:09:41.937Z,95.00
2017-09-25T04:12:09.613Z,95.00
2017-09-25T04:14:37.313Z,95.00
2017-09-25T04:17:05.002Z,94.90
2017-09-25T04:19:32.596Z,94.80
2017-09-25T04:22:00.197Z,95.00
2017-09-25T04:24:27.831Z,94.50
2017-09-25T04:26:55.452Z,94.60
2017-09-25T04:29:23.790Z,94.40
2017-09-25T04:31:51.425Z,94.40
2017-09-25T04:34:19.018Z,94.40
2017-09-25T04:36:46.700Z,94.30
2017-09-25T04:39:14.325Z,94.20
2017-09-25T04:41:41.941Z,94.20
2017-09-25T04:44:10.338Z,94.00
2017-09-25T04:46:37.960Z,94.00
2017-09-25T04:49:05.521Z,94.00
2017-09-25T04:51:33.135Z,94.10
2017-09-25T04:54:01.809Z,94.30
2017-09-25T04:56:29.395Z,94.10
2017-09-25T04:58:57.037Z,94.20
2017-09-25T05:01:24.652Z,94.00
2017-09-25T05:03:52.241Z,94.10
2017-09-25T05:06:20.337Z,94.00
2017-09-25T05:08:48.003Z,94.10
2017-09-25T05:11:15.617Z,94.00
2017-09-25T05:13:43.332Z,93.90
2017-09-25T05:16:10.938Z,94.00
2017-09-25T05:18:38.561Z,94.00
2017-09-25T05:21:08.054Z,93.90
2017-09-25T05:23:35.687Z,94.00
2017-09-25T05:26:03.302Z,93.80
2017-09-25T05:28:30.947Z,93.90
2017-09-25T05:30:58.547Z,93.80
2017-09-25T05:33:26.173Z,93.80
2017-09-25T05:35:53.783Z,93.80
2017-09-25T05:38:21.461Z,93.90
2017-09-25T05:40:49.314Z,93.90
2017-09-25T05:43:16.956Z,93.80
2017-09-25T05:45:44.618Z,93.80
2017-09-25T05:48:12.387Z,93.80
2017-09-25T05:50:40.024Z,93.70
2017-09-25T05:53:07.724Z,93.70
2017-09-25T05:55:35.438Z,93.80
2017-09-25T05:58:03.776Z,93.70
2017-09-25T06:00:32.126Z,93.70
2017-09-25T06:02:59.760Z,93.70
2017-09-25T06:05:27.422Z,93.70
2017-09-25T06:07:55.045Z,93.50
2017-09-25T06:10:23.293Z,93.50
2017-09-25T06:12:51.728Z,93.30
2017-09-25T06:15:19.331Z,93.30
2017-09-25T06:17:46.945Z,92.90
2017-09-25T06:20:14.538Z,93.00
2017-09-25T06:22:42.144Z,92.70
2017-09-25T06:25:09.743Z,92.80
2017-09-25T06:27:37.668Z,92.90
2017-09-25T06:30:05.274Z,92.50
2017-09-25T06:32:32.856Z,92.40
2017-09-25T06:35:00.533Z,92.20
2017-09-25T06:37:28.894Z,92.00
2017-09-25T06:39:56.471Z,92.00
2017-09-25T06:42:24.876Z,91.90
2017-09-25T06:44:53.329Z,91.90
2017-09-25T06:47:21.810Z,91.80
2017-09-25T06:49:50.221Z,91.80
2017-09-25T06:52:17.858Z,91.80
2017-09-25T06:54:46.237Z,91.60
2017-09-25T06:57:14.615Z,91.50
2017-09-25T06:59:42.201Z,91.50
2017-09-25T07:02:09.872Z,91.40
2017-09-25T07:04:37.556Z,91.50
2017-09-25T07:07:05.142Z,91.60
2017-09-25T07:09:33.621Z,91.60
2017-09-25T07:12:01.227Z,91.60
2017-09-25T07:14:28.966Z,91.60
2017-09-25T07:16:57.588Z,91.30
2017-09-25T07:19:25.236Z,91.30
2017-09-25T07:21:52.874Z,91.50
2017-09-25T07:24:21.235Z,91.60
2017-09-25T07:26:49.598Z,91.50
2017-09-25T07:29:17.222Z,91.50
2017-09-25T07:31:44.879Z,91.50
2017-09-25T07:34:12.556Z,91.30
2017-09-25T07:36:40.735Z,91.30
2017-09-25T07:39:08.365Z,91.20
2017-09-25T07:41:35.946Z,90.90
2017-09-25T07:44:04.445Z,90.60
2017-09-25T07:46:32.067Z,90.60
2017-09-25T07:48:59.692Z,90.30
2017-09-25T07:51:27.267Z,90.10
2017-09-25T07:53:54.981Z,89.10
2017-09-25T07:56:22.587Z,89.10
2017-09-25T07:58:50.957Z,89.20
2017-09-25T08:01:18.626Z,89.10
2017-09-25T08:03:47.034Z,90.30
2017-09-25T08:06:14.676Z,90.00
2017-09-25T08:08:43.102Z,88.80
2017-09-25T08:11:10.710Z,88.70
2017-09-25T08:13:39.120Z,89.10
2017-09-25T08:16:06.724Z,89.10
2017-09-25T08:18:34.352Z,88.70
2017-09-25T08:21:01.985Z,88.60
2017-09-25T08:23:30.335Z,88.10
2017-09-25T08:25:57.958Z,88.10
2017-09-25T08:28:25.595Z,87.60
2017-09-25T08:30:53.199Z,87.00
2017-09-25T08:33:20.774Z,86.70
2017-09-25T08:35:48.392Z,86.60
2017-09-25T08:38:16.098Z,85.60
2017-09-25T08:40:43.695Z,85.20
2017-09-25T08:43:11.351Z,85.00
2017-09-25T08:45:38.929Z,85.30
2017-09-25T08:48:06.532Z,85.70
2017-09-25T08:50:34.173Z,85.10
2017-09-25T08:53:02.577Z,84.00
2017-09-25T08:55:30.219Z,83.10
2017-09-25T08:57:57.819Z,83.70
2017-09-25T09:00:25.471Z,83.60
2017-09-25T09:02:53.087Z,82.60
2017-09-25T09:05:20.681Z,82.50
2017-09-25T09:07:48.284Z,82.50
2017-09-25T09:10:16.637Z,80.20
2017-09-25T09:12:45.024Z,80.20
2017-09-25T09:15:12.600Z,79.60
2017-09-25T09:17:40.957Z,77.90
2017-09-25T09:20:08.538Z,77.90
2017-09-25T09:22:36.157Z,78.10
2017-09-25T09:25:03.772Z,77.70
2017-09-25T09:27:31.364Z,78.40
2017-09-25T09:29:58.988Z,78.00
2017-09-25T09:32:27.141Z,77.10
2017-09-25T09:34:55.588Z,76.90
2017-09-25T09:37:23.211Z,76.70
2017-09-25T09:39:50.808Z,75.10
2017-09-25T09:42:18.421Z,74.40
2017-09-25T09:44:46.802Z,72.90
2017-09-25T09:47:15.153Z,72.70
2017-09-25T09:49:42.706Z,72.60
2017-09-25T09:52:10.322Z,72.70
2017-09-25T09:54:37.988Z,73.00
2017-09-25T09:57:05.566Z,72.80
2017-09-25T09:59:33.176Z,72.90
2017-09-25T10:02:01.578Z,73.70
2017-09-25T10:04:29.201Z,73.70
2017-09-25T10:06:56.784Z,73.20
2017-09-25T10:09:24.403Z,73.60
2017-09-25T10:11:52.078Z,72.90
2017-09-25T10:14:19.648Z,72.80
2017-09-25T10:16:48.035Z,73.10
2017-09-25T10:19:16.374Z,71.80
2017-09-25T10:21:44.000Z,71.80
2017-09-25T10:24:11.586Z,71.50
2017-09-25T10:26:39.295Z,71.80
2017-09-25T10:29:07.644Z,72.80
2017-09-25T10:31:35.197Z,72.70
2017-09-25T10:34:02.792Z,72.90
2017-09-25T10:36:31.142Z,72.50
2017-09-25T10:38:58.751Z,72.50
2017-09-25T10:41:26.334Z,72.50
2017-09-25T10:43:53.960Z,72.50
2017-09-25T10:46:22.328Z,72.80
2017-09-25T10:48:49.874Z,72.80
2017-09-25T10:51:17.494Z,72.50
2017-09-25T10:53:45.074Z,71.80
2017-09-25T10:56:12.663Z,71.70
2017-09-25T10:58:40.267Z,71.40
2017-09-25T11:01:09.445Z,72.50
2017-09-25T11:03:37.810Z,71.60
2017-09-25T11:06:06.175Z,71.70
2017-09-25T11:08:33.872Z,71.70
2017-09-25T11:11:01.474Z,72.30
2017-09-25T11:13:29.060Z,72.60
2017-09-25T11:15:57.434Z,72.30
2017-09-25T11:18:25.054Z,72.30
2017-09-25T11:20:52.658Z,72.00
2017-09-25T11:23:20.264Z,72.10
2017-09-25T11:25:47.832Z,72.00
2017-09-25T11:28:15.397Z,70.90
2017-09-25T11:30:43.055Z,71.30
2017-09-25T11:33:10.669Z,72.90
2017-09-25T11:35:39.045Z,74.90
2017-09-25T11:38:06.631Z,74.80
2017-09-25T11:40:34.191Z,75.50
2017-09-25T11:43:01.796Z,75.50
2017-09-25T11:45:29.377Z,75.50
2017-09-25T11:47:57.011Z,75.20
2017-09-25T11:50:24.574Z,75.30
2017-09-25T11:52:52.169Z,76.00
2017-09-25T11:55:20.558Z,77.00
2017-09-25T11:57:48.149Z,76.10
2017-09-25T12:00:15.726Z,76.40
2017-09-25T12:02:43.339Z,76.50
2017-09-25T12:05:11.677Z,77.60
2017-09-25T12:07:39.294Z,77.60
2017-09-25T12:10:06.889Z,78.40
2017-09-25T12:12:35.295Z,77.60
2017-09-25T12:15:02.929Z,77.50
2017-09-25T12:17:30.594Z,78.00
2017-09-25T12:19:58.178Z,78.20
2017-09-25T12:22:26.092Z,78.20
2017-09-25T12:24:53.705Z,77.40
2017-09-25T12:27:21.284Z,76.30
2017-09-25T12:29:48.856Z,75.20
2017-09-25T12:32:17.142Z,74.90
2017-09-25T12:34:44.767Z,75.10
2017-09-25T12:37:12.455Z,75.20
2017-09-25T12:39:40.133Z,76.10
2017-09-25T12:42:07.712Z,76.40
2017-09-25T12:44:35.303Z,76.40
2017-09-25T12:47:02.986Z,75.30
2017-09-25T12:49:31.370Z,76.60
2017-09-25T12:51:59.751Z,77.20
2017-09-25T12:54:28.128Z,77.00
2017-09-25T12:56:56.483Z,76.90
2017-09-25T12:59:24.081Z,76.90
2017-09-25T13:01:52.463Z,76.00
2017-09-25T13:04:20.077Z,75.70
2017-09-25T13:06:47.695Z,76.00
2017-09-25T13:09:15.286Z,76.40
2017-09-25T13:11:43.001Z,76.80
2017-09-25T13:14:10.577Z,77.40
2017-09-25T13:16:38.153Z,77.90
2017-09-25T13:19:05.803Z,78.50
2017-09-25T13:21:33.461Z,79.00
2017-09-25T13:24:01.102Z,78.80
2017-09-25T13:26:28.813Z,78.80
2017-09-25T13:28:56.771Z,78.90
2017-09-25T13:31:24.741Z,79.60
2017-09-25T13:33:52.358Z,79.60
2017-09-25T13:36:20.708Z,79.70
2017-09-25T13:38:48.311Z,79.60
2017-09-25T13:41:15.908Z,79.60
2017-09-25T13:43:43.484Z,79.30
2017-09-25T13:46:11.131Z,79.00
2017-09-25T13:48:38.756Z,78.70
2017-09-25T13:51:06.556Z,78.80
2017-09-25T13:53:34.211Z,79.40
2017-09-25T13:56:01.770Z,79.50
2017-09-25T13:58:29.367Z,78.60
2017-09-25T14:03:30.624Z,78.60
2017-09-25T14:05:58.238Z,78.20
2017-09-25T14:08:25.893Z,77.90
2017-09-25T14:10:53.556Z,77.90
2017-09-25T14:13:21.247Z,76.80
2017-09-25T14:15:48.841Z,76.20
2017-09-25T14:18:16.456Z,76.40
2017-09-25T14:20:44.970Z,76.80
2017-09-25T14:23:13.347Z,77.70
2017-09-25T14:25:40.964Z,77.30
2017-09-25T14:28:08.566Z,77.30
2017-09-25T14:30:36.209Z,77.40
2017-09-25T14:33:03.860Z,77.30
2017-09-25T14:35:31.464Z,77.30
2017-09-25T14:37:59.121Z,77.40
2017-09-25T14:40:26.741Z,77.90
2017-09-25T14:42:55.023Z,77.40
2017-09-25T14:45:22.617Z,77.60
2017-09-25T14:47:50.250Z,77.60
2017-09-25T14:50:17.845Z,77.80
2017-09-25T14:52:45.422Z,78.40
2017-09-25T14:55:13.772Z,79.60
2017-09-25T14:57:41.459Z,79.60
2017-09-25T15:00:09.832Z,80.50
2017-09-25T15:02:37.454Z,80.50
2017-09-25T15:05:05.113Z,81.00
2017-09-25T15:07:32.815Z,81.30
2017-09-25T15:10:00.433Z,80.70
2017-09-25T15:12:28.065Z,80.80
2017-09-25T15:14:55.717Z,81.30
2017-09-25T15:17:23.310Z,81.60
2017-09-25T15:19:50.890Z,81.60
2017-09-25T15:22:18.494Z,81.40
2017-09-25T15:24:46.899Z,81.30
2017-09-25T15:27:14.500Z,81.30
2017-09-25T15:29:42.147Z,81.20
2017-09-25T15:32:10.893Z,81.20
2017-09-25T15:34:38.490Z,81.00
2017-09-25T15:37:06.181Z,80.90
2017-09-25T15:39:33.794Z,80.80
2017-09-25T15:42:01.386Z,81.30
2017-09-25T15:44:29.005Z,81.40
2017-09-25T15:46:56.733Z,81.60
2017-09-25T15:49:25.182Z,82.10
2017-09-25T15:51:52.815Z,82.20
2017-09-25T15:54:20.776Z,82.40
2017-09-25T15:56:48.416Z,83.00
2017-09-25T15:59:16.807Z,83.00
2017-09-25T16:01:45.161Z,83.10
2017-09-25T16:04:12.780Z,83.10
2017-09-25T16:06:40.394Z,83.20
2017-09-25T16:09:09.150Z,83.30
2017-09-25T16:11:36.785Z,83.30
2017-09-25T16:14:04.403Z,83.50
2017-09-25T16:16:33.045Z,84.00
2017-09-25T16:19:00.661Z,83.90
2017-09-25T16:21:28.283Z,83.90
2017-09-25T16:23:55.868Z,84.90
2017-09-25T16:26:23.519Z,84.20
2017-09-25T16:28:51.087Z,84.10
2017-09-25T16:31:18.732Z,84.80
2017-09-25T16:33:46.378Z,84.80
2017-09-25T16:36:14.019Z,85.40
2017-09-25T16:38:41.723Z,85.50
2017-09-25T16:41:10.108Z,86.00
2017-09-25T16:43:37.789Z,85.90
2017-09-25T16:46:06.194Z,86.30
2017-09-25T16:48:33.835Z,86.30
2017-09-25T16:51:02.227Z,86.50
2017-09-25T16:53:29.905Z,86.50
2017-09-25T16:55:57.499Z,86.90
2017-09-25T16:58:25.126Z,87.10
2017-09-25T17:00:52.719Z,87.20
2017-09-25T17:03:20.753Z,87.20
2017-09-25T17:05:48.398Z,87.20
2017-09-25T17:08:16.024Z,87.50
2017-09-25T17:10:43.627Z,88.00
2017-09-25T17:13:11.246Z,88.20
2017-09-25T17:15:38.848Z,88.30
2017-09-25T17:18:06.465Z,88.40
2017-09-25T17:20:34.061Z,88.60
2017-09-25T17:23:01.665Z,88.70
2017-09-25T17:25:29.240Z,89.20
2017-09-25T17:27:56.879Z,89.20
2017-09-25T17:30:24.489Z,89.20
2017-09-25T17:32:52.873Z,89.70
2017-09-25T17:35:20.464Z,89.70
2017-09-25T17:37:48.070Z,89.80
2017-09-25T17:40:15.673Z,89.90
2017-09-25T17:42:43.301Z,89.50
2017-09-25T17:45:10.883Z,89.50
2017-09-25T17:47:38.475Z,89.80
2017-09-25T17:50:06.069Z,89.70
2017-09-25T17:52:33.684Z,89.60
2017-09-25T17:55:01.309Z,89.60
2017-09-25T17:57:29.693Z,89.90
2017-09-25T17:59:58.063Z,90.00
2017-09-25T18:02:26.448Z,90.20
2017-09-25T18:04:54.791Z,90.30
2017-09-25T18:07:22.476Z,90.20
2017-09-25T18:09:50.652Z,90.30
2017-09-25T18:12:18.298Z,90.80
2017-09-25T18:14:45.911Z,91.20
2017-09-25T18:17:13.570Z,91.00
2017-09-25T18:19:41.226Z,91.10
2017-09-25T18:22:08.868Z,91.00
2017-09-25T18:24:37.246Z,91.30
2017-09-25T18:27:05.621Z,91.20
2017-09-25T18:29:33.338Z,91.20
2017-09-25T18:32:00.951Z,91.20
2017-09-25T18:34:29.327Z,91.10
2017-09-25T18:36:57.729Z,91.10
2017-09-25T18:39:25.398Z,91.10
2017-09-25T18:41:53.057Z,91.10
2017-09-25T18:44:20.665Z,91.10
2017-09-25T18:46:48.260Z,91.20
2017-09-25T18:49:17.244Z,90.90
2017-09-25T18:51:44.922Z,90.80
2017-09-25T18:54:13.275Z,90.90
2017-09-25T18:56:40.910Z,90.90
2017-09-25T18:59:08.520Z,90.50
2017-09-25T19:01:37.106Z,90.60
2017-09-25T19:04:05.459Z,90.50
2017-09-25T19:06:33.121Z,90.40
2017-09-25T19:09:00.741Z,90.80
2017-09-25T19:11:28.364Z,90.30
2017-09-25T19:13:56.716Z,90.40
2017-09-25T19:16:24.328Z,90.30
2017-09-25T19:18:51.955Z,90.10
2017-09-25T19:21:20.341Z,90.20
2017-09-25T19:23:48.744Z,90.10
2017-09-25T19:26:16.372Z,90.10
2017-09-25T19:28:44.004Z,90.10
2017-09-25T19:31:11.557Z,90.10
2017-09-25T19:33:39.158Z,90.30
2017-09-25T19:36:06.735Z,89.70
2017-09-25T19:38:34.368Z,89.70
2017-09-25T19:41:02.779Z,89.40
2017-09-25T19:43:30.582Z,89.40
2017-09-25T19:45:58.242Z,89.40
2017-09-25T19:48:28.225Z,89.20
2017-09-25T19:53:54.545Z,88.70
2017-09-25T19:56:22.203Z,88.80
2017-09-25T19:58:52.443Z,88.40
2017-09-25T20:01:20.062Z,88.30
2017-09-25T20:03:47.649Z,88.50
2017-09-25T20:06:15.241Z,88.00
2017-09-25T20:08:42.906Z,87.80
2017-09-25T20:11:10.527Z,87.70
2017-09-25T20:13:38.193Z,88.00
2017-09-25T20:16:11.538Z,88.10
2017-09-25T20:18:39.785Z,88.50
2017-09-25T20:21:08.130Z,89.20
2017-09-25T20:23:35.710Z,89.20
2017-09-25T20:26:04.046Z,89.40
2017-09-25T20:28:31.637Z,89.40
2017-09-25T20:30:59.264Z,89.70
2017-09-25T20:33:26.818Z,89.50
2017-09-25T20:35:54.462Z,89.70
2017-09-25T20:38:22.146Z,90.00
2017-09-25T20:40:52.458Z,90.10
2017-09-25T20:43:20.064Z,90.60
2017-09-25T20:45:47.685Z,90.30
2017-09-25T20:48:15.286Z,90.30
2017-09-25T20:50:43.689Z,90.50
2017-09-25T20:53:12.071Z,90.70
2017-09-25T20:55:39.711Z,90.70
2017-09-25T20:58:08.115Z,91.20
2017-09-25T21:00:35.772Z,91.20
2017-09-25T21:03:03.393Z,91.20
2017-09-25T21:05:31.035Z,91.40
2017-09-25T21:07:58.617Z,91.50
2017-09-25T21:10:26.273Z,91.70
2017-09-25T21:12:53.854Z,91.80
2017-09-25T21:15:21.428Z,91.80
2017-09-25T21:17:49.812Z,92.20
2017-09-25T21:20:18.175Z,92.50
2017-09-25T21:22:45.769Z,92.40
2017-09-25T21:25:13.694Z,92.60
2017-09-25T21:27:51.560Z,92.90
2017-09-25T21:30:19.149Z,93.00
2017-09-25T21:32:46.779Z,92.90
2017-09-25T21:35:14.384Z,93.00
2017-09-25T21:37:41.987Z,93.10
2017-09-25T21:40:09.594Z,93.20
2017-09-25T21:42:38.117Z,93.20
2017-09-25T21:45:06.465Z,93.50
2017-09-25T21:47:34.832Z,93.30
2017-09-25T21:50:02.435Z,93.60
2017-09-25T21:52:30.825Z,93.80
2017-09-25T21:54:58.428Z,93.80
2017-09-25T21:57:26.000Z,93.80
2017-09-25T21:59:53.621Z,93.90
2017-09-25T22:02:21.281Z,94.00
2017-09-25T22:04:48.869Z,93.90
2017-09-25T22:07:16.467Z,94.00
2017-09-25T22:09:44.072Z,94.10
2017-09-25T22:12:11.698Z,94.00
2017-09-25T22:14:39.302Z,94.00
2017-09-25T22:17:06.892Z,94.10
2017-09-25T22:19:34.486Z,94.10
2017-09-25T22:22:02.106Z,94.10
2017-09-25T22:24:30.518Z,94.00
2017-09-25T22:26:58.851Z,94.40
2017-09-25T22:29:26.434Z,94.40
2017-09-25T22:31:54.049Z,94.10
2017-09-25T22:34:21.668Z,94.30
2017-09-25T22:36:50.001Z,94.00
2017-09-25T22:39:17.628Z,94.00
2017-09-25T22:41:45.254Z,93.80
2017-09-25T22:44:14.432Z,93.80
2017-09-25T22:46:42.030Z,93.80
2017-09-25T22:49:10.377Z,94.00
2017-09-25T22:51:38.166Z,94.00
2017-09-25T22:54:05.748Z,94.00
2017-09-25T22:56:33.356Z,94.00
2017-09-25T22:59:00.939Z,93.90
2017-09-25T23:01:29.364Z,93.80
2017-09-25T23:06:48.597Z,94.00
2017-09-25T23:09:16.198Z,94.30
2017-09-25T23:11:45.436Z,94.60
2017-09-25T23:14:13.083Z,94.80
2017-09-25T23:16:40.731Z,95.00
2017-09-25T23:19:08.354Z,95.10
2017-09-25T23:21:35.928Z,95.20
2017-09-25T23:24:03.528Z,95.20
2017-09-25T23:26:31.263Z,95.30
2017-09-25T23:28:58.884Z,95.40
2017-09-25T23:31:27.410Z,95.50
2017-09-25T23:33:55.063Z,95.40
2017-09-25T23:36:22.684Z,95.20
2017-09-25T23:38:51.257Z,95.00
2017-09-25T23:41:18.849Z,94.90
2017-09-25T23:43:47.205Z,94.90
2017-09-25T23:46:14.861Z,94.80
2017-09-25T23:48:42.874Z,94.90
2017-09-25T23:51:10.452Z,94.90
2017-09-25T23:53:38.051Z,94.90
2017-09-25T23:56:05.624Z,94.90
2017-09-25T23:58:33.220Z,94.90
